createdAt,value
2018-05-21T00:00:06.199Z,3.77
2018-05-21T00:02:34.392Z,4.67
2018-05-21T00:05:04.364Z,5.00
2018-05-21T00:07:31.795Z,4.63
2018-05-21T00:09:59.230Z,4.43
2018-05-21T00:12:26.675Z,4.70
2018-05-21T00:14:54.874Z,4.50
2018-05-21T00:17:23.082Z,5.30
2018-05-21T00:19:51.282Z,5.40
2018-05-21T00:22:19.494Z,4.70
2018-05-21T00:24:46.929Z,5.40
2018-05-21T00:27:14.370Z,4.93
2018-05-21T00:29:41.805Z,5.10
2018-05-21T00:32:09.242Z,5.30
2018-05-21T00:34:36.673Z,5.47
2018-05-21T00:37:04.883Z,5.78
2018-05-21T00:39:33.090Z,6.07
2018-05-21T00:42:00.531Z,5.60
2018-05-21T00:44:27.969Z,5.40
2018-05-21T00:46:55.414Z,5.80
2018-05-21T00:49:22.844Z,5.23
2018-05-21T00:51:50.282Z,5.80
2018-05-21T00:54:17.718Z,5.27
2018-05-21T00:56:45.159Z,5.63
2018-05-21T00:59:13.357Z,6.07
2018-05-21T01:01:41.952Z,6.43
2018-05-21T01:04:09.414Z,6.07
2018-05-21T01:06:36.847Z,5.80
2018-05-21T01:09:05.002Z,5.90
2018-05-21T01:11:32.446Z,5.70
2018-05-21T01:14:00.735Z,6.53
2018-05-21T01:16:28.933Z,5.50
2018-05-21T01:18:57.135Z,6.20
2018-05-21T01:21:24.578Z,5.87
2018-05-21T01:23:52.023Z,6.50
2018-05-21T01:26:19.458Z,6.00
2018-05-21T01:28:47.677Z,5.63
2018-05-21T01:31:15.882Z,5.87
2018-05-21T01:33:43.314Z,5.60
2018-05-21T01:36:10.753Z,5.10
2018-05-21T01:38:38.200Z,6.43
2018-05-21T01:41:05.634Z,6.23
2018-05-21T01:43:33.079Z,6.00
2018-05-21T01:46:01.295Z,6.63
2018-05-21T01:50:55.739Z,5.83
2018-05-21T01:53:23.178Z,6.30
2018-05-21T01:55:50.614Z,5.87
2018-05-21T01:58:18.053Z,6.13
2018-05-21T02:00:45.494Z,6.78
2018-05-21T02:03:12.947Z,6.90
2018-05-21T02:05:40.396Z,6.30
2018-05-21T02:08:07.840Z,6.20
2018-05-21T02:10:35.275Z,7.13
2018-05-21T02:13:04.371Z,6.60
2018-05-21T02:15:31.803Z,6.30
2018-05-21T02:17:59.242Z,6.12
2018-05-21T02:20:26.690Z,6.00
2018-05-21T02:22:54.139Z,7.10
2018-05-21T02:25:22.360Z,5.68
2018-05-21T02:27:49.798Z,6.00
2018-05-21T02:30:17.230Z,6.03
2018-05-21T02:32:44.674Z,4.93
2018-05-21T02:35:12.880Z,5.70
2018-05-21T02:37:41.089Z,6.13
2018-05-21T02:40:08.539Z,5.73
2018-05-21T02:42:35.993Z,5.03
2018-05-21T02:45:03.422Z,5.37
2018-05-21T02:47:31.630Z,5.30
2018-05-21T02:49:59.836Z,5.73
2018-05-21T02:52:28.039Z,5.10
2018-05-21T02:54:56.254Z,6.20
2018-05-21T02:57:24.458Z,5.90
2018-05-21T02:59:51.891Z,5.87
2018-05-21T03:02:19.338Z,6.23
2018-05-21T03:04:46.765Z,6.67
2018-05-21T03:07:14.210Z,6.40
2018-05-21T03:09:42.641Z,6.43
2018-05-21T03:12:10.086Z,6.00
2018-05-21T03:14:37.526Z,6.40
2018-05-21T03:17:04.965Z,6.63
2018-05-21T03:19:32.399Z,6.07
2018-05-21T03:21:59.846Z,6.67
2018-05-21T03:24:27.290Z,6.40
2018-05-21T03:26:55.498Z,6.60
2018-05-21T03:29:23.699Z,6.50
2018-05-21T03:31:51.920Z,7.10
2018-05-21T03:34:19.362Z,6.60
2018-05-21T03:36:46.814Z,6.57
2018-05-21T03:39:14.246Z,6.30
2018-05-21T03:41:42.455Z,6.17
2018-05-21T03:44:09.889Z,6.37
2018-05-21T03:46:37.339Z,7.10
2018-05-21T03:49:04.774Z,6.77
2018-05-21T03:51:32.203Z,6.53
2018-05-21T03:53:59.650Z,6.23
2018-05-21T03:56:27.087Z,6.43
2018-05-21T03:59:06.382Z,6.23
2018-05-21T04:01:45.739Z,6.10
2018-05-21T04:04:13.994Z,6.37
2018-05-21T04:06:42.194Z,6.80
2018-05-21T04:09:10.358Z,6.57
2018-05-21T04:11:37.802Z,7.00
2018-05-21T04:14:05.241Z,7.00
2018-05-21T04:16:32.676Z,7.43
2018-05-21T04:19:00.123Z,6.70
2018-05-21T04:21:28.330Z,6.93
2018-05-21T04:23:56.543Z,7.83
2018-05-21T04:26:23.981Z,6.77
2018-05-21T04:28:51.422Z,6.37
2018-05-21T04:31:18.858Z,6.80
2018-05-21T04:33:46.306Z,6.07
2018-05-21T04:36:13.738Z,6.67
2018-05-21T04:38:41.946Z,6.67
2018-05-21T04:41:09.385Z,6.10
2018-05-21T04:43:36.850Z,6.53
2018-05-21T04:46:04.287Z,6.80
2018-05-21T04:48:32.495Z,6.60
2018-05-21T04:51:00.698Z,6.67
2018-05-21T04:53:28.137Z,5.97
2018-05-21T04:55:55.574Z,6.90
2018-05-21T04:58:23.030Z,6.87
2018-05-21T05:00:51.235Z,7.80
2018-05-21T05:03:19.442Z,5.80
2018-05-21T05:05:47.651Z,7.50
2018-05-21T05:08:15.108Z,6.70
2018-05-21T05:10:42.538Z,7.20
2018-05-21T05:13:09.982Z,6.60
2018-05-21T05:15:37.418Z,7.07
2018-05-21T05:18:04.863Z,6.90
2018-05-21T05:20:33.071Z,7.40
2018-05-21T05:23:01.275Z,7.40
2018-05-21T05:25:29.474Z,7.70
2018-05-21T05:27:57.690Z,7.50
2018-05-21T05:30:25.122Z,7.60
2018-05-21T05:32:52.570Z,6.50
2018-05-21T05:35:20.024Z,7.23
2018-05-21T05:37:48.227Z,7.30
2018-05-21T05:40:16.440Z,8.07
2018-05-21T05:42:43.882Z,8.03
2018-05-21T05:45:11.326Z,7.33
2018-05-21T05:47:38.782Z,7.90
2018-05-21T05:50:06.219Z,9.70
2018-05-21T05:52:33.659Z,7.63
2018-05-21T05:55:01.106Z,8.23
2018-05-21T05:57:29.310Z,7.63
2018-05-21T05:59:57.514Z,7.43
2018-05-21T06:02:25.999Z,8.33
2018-05-21T06:04:53.443Z,8.40
2018-05-21T06:07:20.888Z,7.87
2018-05-21T06:09:49.102Z,7.90
2018-05-21T06:12:17.142Z,8.60
2018-05-21T06:14:44.581Z,7.60
2018-05-21T06:17:12.023Z,7.60
2018-05-21T06:19:39.466Z,7.30
2018-05-21T06:22:06.898Z,7.77
2018-05-21T06:24:34.347Z,8.00
2018-05-21T06:27:01.789Z,8.33
2018-05-21T06:29:29.227Z,8.30
2018-05-21T06:31:56.667Z,8.00
2018-05-21T06:34:24.278Z,7.60
2018-05-21T06:36:51.563Z,7.90
2018-05-21T06:39:19.012Z,8.30
2018-05-21T06:41:47.225Z,8.10
2018-05-21T06:44:15.431Z,7.20
2018-05-21T06:49:09.911Z,8.10
2018-05-21T06:51:37.398Z,8.27
2018-05-21T06:54:04.859Z,9.07
2018-05-21T06:56:32.299Z,9.10
2018-05-21T06:59:00.510Z,8.13
2018-05-21T07:01:28.712Z,8.48
2018-05-21T07:08:51.677Z,7.43
2018-05-21T07:11:19.886Z,8.17
2018-05-21T07:13:47.330Z,8.50
2018-05-21T07:16:14.767Z,8.00
2018-05-21T07:18:42.230Z,8.45
2018-05-21T07:21:10.443Z,8.00
2018-05-21T07:23:38.663Z,7.47
2018-05-21T07:26:06.111Z,7.60
2018-05-21T07:28:33.566Z,7.07
2018-05-21T07:31:01.007Z,7.68
2018-05-21T07:33:29.231Z,7.60
2018-05-21T07:35:56.663Z,7.90
2018-05-21T07:38:24.101Z,7.95
2018-05-21T07:40:51.547Z,8.10
2018-05-21T07:43:19.758Z,7.87
2018-05-21T07:45:47.970Z,7.97
2018-05-21T07:48:16.167Z,8.27
2018-05-21T07:50:43.619Z,8.47
2018-05-21T08:22:39.926Z,8.33
2018-05-21T08:25:07.363Z,7.80
2018-05-21T08:27:34.800Z,7.33
2018-05-21T08:32:29.250Z,7.65
2018-05-21T08:34:56.699Z,8.93
2018-05-21T08:37:24.903Z,7.77
2018-05-21T08:39:53.114Z,8.17
2018-05-21T08:42:20.555Z,8.85
2018-05-21T08:44:47.995Z,8.07
2018-05-21T08:47:15.432Z,7.33
2018-05-21T08:49:42.878Z,7.20
2018-05-21T08:52:10.306Z,6.00
2018-05-21T08:54:38.517Z,7.47
2018-05-21T08:57:06.037Z,7.93
2018-05-21T08:59:33.402Z,8.37
2018-05-21T09:02:00.839Z,7.30
2018-05-21T09:04:28.290Z,7.33
2018-05-21T09:11:50.488Z,6.57
2018-05-21T09:14:18.699Z,7.77
2018-05-21T09:16:46.134Z,6.33
2018-05-21T09:19:13.583Z,6.60
2018-05-21T09:21:41.029Z,7.40
2018-05-21T09:24:09.242Z,7.20
2018-05-21T09:26:36.669Z,8.07
2018-05-21T09:29:04.123Z,8.47
2018-05-21T09:31:31.555Z,7.07
2018-05-21T09:33:58.987Z,6.10
2018-05-21T09:36:26.435Z,6.87
2018-05-21T09:38:54.635Z,6.30
2018-05-21T09:41:22.846Z,5.73
2018-05-21T09:43:50.285Z,5.70
2018-05-21T09:46:17.725Z,6.83
2018-05-21T09:48:45.259Z,6.20
2018-05-21T09:58:34.394Z,7.18
2018-05-21T10:01:01.841Z,7.60
2018-05-21T10:03:29.279Z,5.70
2018-05-21T10:05:56.722Z,6.40
2018-05-21T10:08:24.946Z,7.53
2018-05-21T10:10:53.155Z,6.73
2018-05-21T10:13:20.599Z,5.95
2018-05-21T10:15:48.049Z,5.93
2018-05-21T10:18:15.483Z,6.40
2018-05-21T10:20:43.701Z,6.83
2018-05-21T10:23:11.135Z,6.90
2018-05-21T10:25:38.586Z,6.43
2018-05-21T10:28:06.027Z,6.33
2018-05-21T10:30:33.482Z,6.07
2018-05-21T10:33:00.931Z,6.72
2018-05-21T10:35:28.390Z,7.50
2018-05-21T10:37:55.846Z,7.00
2018-05-21T10:40:24.141Z,6.70
2018-05-21T10:42:51.518Z,7.10
2018-05-21T10:45:19.739Z,6.10
2018-05-21T10:47:47.944Z,5.70
2018-05-21T10:50:15.389Z,6.57
2018-05-21T10:52:42.834Z,6.30
2018-05-21T10:55:10.276Z,6.10
2018-05-21T10:57:38.563Z,5.20
2018-05-21T11:00:05.936Z,6.80
2018-05-21T11:02:33.375Z,5.78
2018-05-21T11:05:00.821Z,5.35
2018-05-21T11:07:29.028Z,5.33
2018-05-21T11:09:56.470Z,6.70
2018-05-21T11:12:23.926Z,6.55
2018-05-21T11:14:51.361Z,6.10
2018-05-21T11:17:19.578Z,6.10
2018-05-21T11:19:47.031Z,5.70
2018-05-21T11:22:15.242Z,5.93
2018-05-21T11:24:43.540Z,6.00
2018-05-21T11:27:10.915Z,5.70
2018-05-21T11:29:39.134Z,6.20
2018-05-21T11:32:06.599Z,5.50
2018-05-21T11:34:34.795Z,5.28
2018-05-21T11:37:03.024Z,5.23
2018-05-21T11:39:30.464Z,5.43
2018-05-21T11:41:58.679Z,5.37
2018-05-21T11:44:26.890Z,5.28
2018-05-21T11:46:54.635Z,4.90
2018-05-21T11:49:22.074Z,5.22
2018-05-21T11:51:49.535Z,4.75
2018-05-21T11:54:16.973Z,5.05
2018-05-21T11:56:44.426Z,4.90
2018-05-21T11:59:11.859Z,4.60
2018-05-21T12:01:40.086Z,4.60
2018-05-21T12:04:07.519Z,4.75
2018-05-21T12:06:34.975Z,4.57
2018-05-21T12:09:02.418Z,4.80
2018-05-21T12:11:30.626Z,4.50
2018-05-21T12:13:58.064Z,4.40
2018-05-21T12:16:25.502Z,4.50
2018-05-21T12:18:52.943Z,4.20
2018-05-21T12:21:20.949Z,4.80
2018-05-21T12:23:49.869Z,4.70
2018-05-21T12:26:18.079Z,4.60
2018-05-21T12:28:45.536Z,5.40
2018-05-21T12:31:12.967Z,5.30
2018-05-21T12:33:40.406Z,4.80
2018-05-21T12:36:08.618Z,4.80
2018-05-21T12:38:36.840Z,4.60
2018-05-21T12:41:04.296Z,4.93
2018-05-21T12:43:32.494Z,5.10
2018-05-21T12:46:00.714Z,4.93
2018-05-21T12:48:28.146Z,5.30
2018-05-21T12:50:55.594Z,5.03
2018-05-21T12:53:23.026Z,4.70
2018-05-21T12:55:50.477Z,4.60
2018-05-21T12:58:17.909Z,4.30
2018-05-21T13:00:45.358Z,4.50
2018-05-21T13:03:12.794Z,4.70
2018-05-21T13:05:40.262Z,4.00
2018-05-21T13:08:07.702Z,4.07
2018-05-21T13:10:35.787Z,4.80
2018-05-21T13:13:03.218Z,4.45
2018-05-21T13:15:30.679Z,4.20
2018-05-21T13:17:58.883Z,4.30
2018-05-21T13:20:27.106Z,3.90
2018-05-21T13:22:54.562Z,3.95
2018-05-21T13:25:22.775Z,4.20
2018-05-21T13:27:52.193Z,4.10
2018-05-21T13:30:20.405Z,4.50
2018-05-21T13:32:48.602Z,3.60
2018-05-21T13:35:16.044Z,3.75
2018-05-21T13:37:43.488Z,4.60
2018-05-21T13:40:11.574Z,4.10
2018-05-21T13:42:39.018Z,4.50
2018-05-21T13:45:06.458Z,4.75
2018-05-21T13:47:33.910Z,4.40
2018-05-21T13:50:01.357Z,4.50
2018-05-21T13:52:28.847Z,4.10
2018-05-21T13:54:56.243Z,4.30
2018-05-21T13:57:24.458Z,3.97
2018-05-21T13:59:51.890Z,4.00
2018-05-21T14:02:19.334Z,3.70
2018-05-21T14:04:46.775Z,3.90
2018-05-21T14:07:14.229Z,3.70
2018-05-21T14:09:41.683Z,3.58
2018-05-21T14:12:09.142Z,3.60
2018-05-21T14:14:36.590Z,4.20
2018-05-21T14:17:04.038Z,3.90
2018-05-21T14:19:31.494Z,3.45
2018-05-21T14:21:58.945Z,3.80
2018-05-21T14:24:27.150Z,3.90
2018-05-21T14:26:55.362Z,3.50
2018-05-21T14:29:23.595Z,3.50
2018-05-21T14:31:51.782Z,3.50
2018-05-21T14:34:19.231Z,3.37
2018-05-21T14:36:47.454Z,3.80
2018-05-21T14:39:14.899Z,3.40
2018-05-21T14:41:42.359Z,2.85
2018-05-21T14:44:10.558Z,3.00
2018-05-21T14:46:38.730Z,3.03
2018-05-21T14:49:06.166Z,3.10
2018-05-21T14:51:33.606Z,3.70
2018-05-21T14:54:01.046Z,4.03
2018-05-21T14:56:29.258Z,3.70
2018-05-21T14:58:57.790Z,3.60
2018-05-21T15:01:25.243Z,3.73
2018-05-21T15:03:52.751Z,3.33
2018-05-21T15:06:20.129Z,3.37
2018-05-21T15:08:47.550Z,3.43
2018-05-21T15:11:14.994Z,3.17
2018-05-21T15:13:42.435Z,3.67
2018-05-21T15:16:09.908Z,3.40
2018-05-21T15:18:37.310Z,3.40
2018-05-21T15:21:05.515Z,3.20
2018-05-21T15:23:33.724Z,2.80
2018-05-21T15:26:01.154Z,3.23
2018-05-21T15:28:28.603Z,3.33
2018-05-21T15:30:56.043Z,2.93
2018-05-21T15:33:24.250Z,3.10
2018-05-21T15:35:53.664Z,3.10
2018-05-21T15:38:21.094Z,3.10
2018-05-21T15:40:48.538Z,2.65
2018-05-21T15:43:16.840Z,2.90
2018-05-21T15:45:44.958Z,3.10
2018-05-21T15:48:14.528Z,3.20
2018-05-21T15:50:41.950Z,2.70
2018-05-21T15:53:09.396Z,2.80
2018-05-21T15:55:36.826Z,2.80
2018-05-21T15:58:05.042Z,3.03
2018-05-21T16:00:33.234Z,3.03
2018-05-21T16:03:01.440Z,3.20
2018-05-21T16:05:29.639Z,3.17
2018-05-21T16:07:57.082Z,2.93
2018-05-21T16:10:24.514Z,3.67
2018-05-21T16:12:51.954Z,2.90
2018-05-21T16:15:19.385Z,3.23
2018-05-21T16:17:46.831Z,3.53
2018-05-21T16:20:15.031Z,3.13
2018-05-21T16:22:42.470Z,3.93
2018-05-21T16:25:09.902Z,3.20
2018-05-21T16:27:37.417Z,3.43
2018-05-21T16:30:04.838Z,3.10
2018-05-21T16:32:32.223Z,3.10
2018-05-21T16:34:59.658Z,3.30
2018-05-21T16:37:27.106Z,3.30
2018-05-21T16:39:55.313Z,3.15
2018-05-21T16:42:23.515Z,3.27
2018-05-21T16:44:51.715Z,3.93
2018-05-21T16:47:19.922Z,3.00
2018-05-21T16:49:48.126Z,4.17
2018-05-21T16:52:16.330Z,3.57
2018-05-21T16:54:43.770Z,3.40
2018-05-21T16:57:11.214Z,3.50
2018-05-21T16:59:38.647Z,3.43
2018-05-21T17:02:06.090Z,3.10
2018-05-21T17:04:33.527Z,3.40
2018-05-21T17:07:01.734Z,3.03
2018-05-21T17:09:29.939Z,3.55
2018-05-21T17:11:58.154Z,3.43
2018-05-21T17:14:25.585Z,3.10
2018-05-21T17:16:53.018Z,4.20
2018-05-21T17:19:20.462Z,3.47
2018-05-21T17:21:47.895Z,4.53
2018-05-21T17:24:15.338Z,3.50
2018-05-21T17:26:43.538Z,3.60
2018-05-21T17:29:11.755Z,3.70
2018-05-21T17:31:39.976Z,3.67
2018-05-21T17:34:07.414Z,3.80
2018-05-21T17:36:34.846Z,3.47
2018-05-21T17:39:02.290Z,3.53
2018-05-21T17:41:29.729Z,3.30
2018-05-21T17:43:57.165Z,3.30
2018-05-21T17:46:25.370Z,3.20
2018-05-21T17:48:53.581Z,3.30
2018-05-21T17:51:21.783Z,3.37
2018-05-21T17:53:49.987Z,3.40
2018-05-21T17:56:17.427Z,3.80
2018-05-21T17:58:44.867Z,3.03
2018-05-21T18:01:12.302Z,3.63
2018-05-21T18:03:39.828Z,3.53
2018-05-21T18:06:07.173Z,4.00
2018-05-21T18:08:34.619Z,3.80
2018-05-21T18:11:02.050Z,3.53
2018-05-21T18:13:30.263Z,3.87
2018-05-21T18:15:58.458Z,3.67
2018-05-21T18:18:26.671Z,4.00
2018-05-21T18:20:57.015Z,3.37
2018-05-21T18:23:25.256Z,4.50
2018-05-21T18:25:52.674Z,4.10
2018-05-21T18:28:20.122Z,4.00
2018-05-21T18:30:47.555Z,3.60
2018-05-21T18:33:14.995Z,4.00
2018-05-21T18:35:42.505Z,3.85
2018-05-21T18:38:10.647Z,3.80
2018-05-21T18:40:38.854Z,3.40
2018-05-21T18:43:06.294Z,3.87
2018-05-21T18:45:33.722Z,3.83
2018-05-21T18:48:02.040Z,3.63
2018-05-21T18:50:29.470Z,3.73
2018-05-21T18:52:56.916Z,3.73
2018-05-21T18:55:24.342Z,4.00
2018-05-21T18:57:51.782Z,4.23
2018-05-21T19:00:19.218Z,4.10
2018-05-21T19:02:47.435Z,4.50
2018-05-21T19:05:15.638Z,4.20
2018-05-21T19:07:43.842Z,4.28
2018-05-21T19:10:11.294Z,4.70
2018-05-21T19:12:38.722Z,4.20
2018-05-21T19:15:06.163Z,4.30
2018-05-21T19:17:34.358Z,4.10
2018-05-21T19:20:02.583Z,4.57
2018-05-21T19:22:30.779Z,4.65
2018-05-21T19:24:59.003Z,4.37
2018-05-21T19:27:26.446Z,4.50
2018-05-21T19:29:54.666Z,4.60
2018-05-21T19:32:22.110Z,4.20
2018-05-21T19:34:49.562Z,4.20
2018-05-21T19:37:16.999Z,4.30
2018-05-21T19:39:45.231Z,4.47
2018-05-21T19:42:12.666Z,4.60
2018-05-21T19:44:40.106Z,4.80
2018-05-21T19:47:07.542Z,4.50
2018-05-21T19:49:34.986Z,4.70
2018-05-21T19:52:02.419Z,4.50
2018-05-21T19:54:30.627Z,5.40
2018-05-21T19:56:58.062Z,5.20
2018-05-21T19:59:25.507Z,5.23
2018-05-21T20:01:52.942Z,4.50
2018-05-21T20:04:20.378Z,4.27
2018-05-21T20:06:47.810Z,4.63
2018-05-21T20:14:09.237Z,4.07
2018-05-21T20:16:37.443Z,5.20
2018-05-21T20:19:05.656Z,4.97
2018-05-21T20:21:33.854Z,5.23
2018-05-21T20:24:02.068Z,5.10
2018-05-21T20:26:29.774Z,4.50
2018-05-21T20:28:57.249Z,4.80
2018-05-21T20:31:24.724Z,4.67
2018-05-21T20:33:52.086Z,4.80
2018-05-21T20:36:20.290Z,5.70
2018-05-21T20:38:47.737Z,5.20
2018-05-21T20:41:15.183Z,5.37
2018-05-21T20:43:42.614Z,4.50
2018-05-21T20:46:10.819Z,5.10
2018-05-21T20:48:39.027Z,4.90
2018-05-21T20:51:07.227Z,4.90
2018-05-21T20:53:35.441Z,5.27
2018-05-21T20:56:03.639Z,5.20
2018-05-21T20:58:31.843Z,4.60
2018-05-21T21:00:59.282Z,5.10
2018-05-21T21:03:26.722Z,5.00
2018-05-21T21:05:54.159Z,5.20
2018-05-21T21:08:21.590Z,6.07
2018-05-21T21:10:49.054Z,6.03
2018-05-21T21:13:17.253Z,4.83
2018-05-21T21:15:45.451Z,5.03
2018-05-21T21:18:13.800Z,6.50
2018-05-21T21:20:42.459Z,5.90
2018-05-21T21:23:10.650Z,5.37
2018-05-21T21:25:38.858Z,5.83
2018-05-21T21:28:07.060Z,5.67
2018-05-21T21:30:35.273Z,5.70
2018-05-21T21:33:02.711Z,5.03
2018-05-21T21:35:31.016Z,5.60
2018-05-21T21:37:58.434Z,5.10
2018-05-21T21:40:25.879Z,4.60
2018-05-21T21:42:53.319Z,5.43
2018-05-21T21:45:20.758Z,4.70
2018-05-21T21:47:48.962Z,5.63
2018-05-21T21:50:17.162Z,5.53
2018-05-21T21:52:45.366Z,6.03
2018-05-21T21:55:13.573Z,6.63
2018-05-21T21:57:41.010Z,5.63
2018-05-21T22:00:08.454Z,5.27
2018-05-21T22:02:35.882Z,5.50
2018-05-21T22:05:03.322Z,5.90
2018-05-21T22:07:30.762Z,6.37
2018-05-21T22:09:58.202Z,5.40
2018-05-21T22:12:28.178Z,5.80
2018-05-21T22:14:55.618Z,5.60
2018-05-21T22:17:23.056Z,6.10
2018-05-21T22:19:51.262Z,4.73
2018-05-21T22:22:19.467Z,5.00
2018-05-21T22:24:47.671Z,5.57
2018-05-21T22:27:15.871Z,5.73
2018-05-21T22:29:44.082Z,5.73
2018-05-21T22:32:11.509Z,5.83
2018-05-21T22:34:38.954Z,5.43
2018-05-21T22:37:06.387Z,5.93
2018-05-21T22:39:33.826Z,4.73
2018-05-21T22:42:01.265Z,5.60
2018-05-21T22:44:29.474Z,5.50
2018-05-21T22:46:57.674Z,6.20
2018-05-21T22:49:25.878Z,5.30
2018-05-21T22:51:55.139Z,5.00
2018-05-21T22:54:34.302Z,5.80
2018-05-21T22:57:01.739Z,4.80
2018-05-21T22:59:29.947Z,4.93
2018-05-21T23:01:58.142Z,5.50
2018-05-21T23:04:26.352Z,5.87
2018-05-21T23:06:54.550Z,5.20
2018-05-21T23:09:22.763Z,4.97
2018-05-21T23:11:50.202Z,5.03
2018-05-21T23:14:17.637Z,5.30
2018-05-21T23:16:45.078Z,4.97
2018-05-21T23:19:12.507Z,4.90
2018-05-21T23:21:39.952Z,6.33
2018-05-21T23:24:08.146Z,5.10
2018-05-21T23:26:36.356Z,5.13
2018-05-21T23:29:04.558Z,5.40
2018-05-21T23:31:32.777Z,5.63
2018-05-21T23:34:00.208Z,6.13
2018-05-21T23:36:27.646Z,5.40
2018-05-21T23:38:55.083Z,4.97
2018-05-21T23:41:22.523Z,5.40
2018-05-21T23:43:49.958Z,6.13
2018-05-21T23:46:18.162Z,5.20
2018-05-21T23:48:46.375Z,4.90
2018-05-21T23:51:14.583Z,5.60
2018-05-21T23:53:42.778Z,5.17
2018-05-21T23:56:10.991Z,6.10
2018-05-21T23:58:38.425Z,5.47
